sensor_id;sensor_type;location;lat;lon;timestamp;temperature;humidity
75281;HTU21D;63874;47.230;39.620;2023-09-19T00:01:42;16.02;67.81
75281;HTU21D;63874;47.230;39.620;2023-09-19T00:04:11;15.93;68.17
75281;HTU21D;63874;47.230;39.620;2023-09-19T00:06:38;15.85;68.43
75281;HTU21D;63874;47.230;39.620;2023-09-19T00:09:04;15.78;68.84
75281;HTU21D;63874;47.230;39.620;2023-09-19T00:11:30;15.74;69.15
75281;HTU21D;63874;47.230;39.620;2023-09-19T00:13:57;15.69;69.38
75281;HTU21D;63874;47.230;39.620;2023-09-19T00:16:26;15.66;69.64
75281;HTU21D;63874;47.230;39.620;2023-09-19T00:18:52;15.60;69.90
75281;HTU21D;63874;47.230;39.620;2023-09-19T00:21:18;15.58;70.12
75281;HTU21D;63874;47.230;39.620;2023-09-19T00:23:45;15.55;70.30
75281;HTU21D;63874;47.230;39.620;2023-09-19T00:26:11;15.52;70.42
75281;HTU21D;63874;47.230;39.620;2023-09-19T00:28:38;15.48;70.57
75281;HTU21D;63874;47.230;39.620;2023-09-19T00:31:08;15.45;70.71
75281;HTU21D;63874;47.230;39.620;2023-09-19T00:33:34;15.40;70.81
75281;HTU21D;63874;47.230;39.620;2023-09-19T00:36:00;15.39;70.90
75281;HTU21D;63874;47.230;39.620;2023-09-19T00:38:30;15.32;71.03
75281;HTU21D;63874;47.230;39.620;2023-09-19T00:40:57;15.30;71.10
75281;HTU21D;63874;47.230;39.620;2023-09-19T00:43:25;15.25;71.24
75281;HTU21D;63874;47.230;39.620;2023-09-19T00:45:55;15.21;71.35
75281;HTU21D;63874;47.230;39.620;2023-09-19T00:48:22;15.18;71.51
75281;HTU21D;63874;47.230;39.620;2023-09-19T00:50:49;15.15;71.59
75281;HTU21D;63874;47.230;39.620;2023-09-19T00:53:20;15.12;71.73
75281;HTU21D;63874;47.230;39.620;2023-09-19T00:55:47;15.08;71.85
75281;HTU21D;63874;47.230;39.620;2023-09-19T00:58:13;15.07;72.00
75281;HTU21D;63874;47.230;39.620;2023-09-19T01:00:40;15.04;72.22
75281;HTU21D;63874;47.230;39.620;2023-09-19T01:03:07;15.04;72.27
75281;HTU21D;63874;47.230;39.620;2023-09-19T01:05:34;15.01;72.29
75281;HTU21D;63874;47.230;39.620;2023-09-19T01:08:01;14.98;72.29
75281;HTU21D;63874;47.230;39.620;2023-09-19T01:10:29;14.97;72.32
75281;HTU21D;63874;47.230;39.620;2023-09-19T01:20:50;14.88;72.65
75281;HTU21D;63874;47.230;39.620;2023-09-19T01:23:46;14.88;72.81
75281;HTU21D;63874;47.230;39.620;2023-09-19T01:29:42;14.86;73.01
75281;HTU21D;63874;47.230;39.620;2023-09-19T01:31:51;14.86;72.97
75281;HTU21D;63874;47.230;39.620;2023-09-19T01:34:19;14.83;72.96
75281;HTU21D;63874;47.230;39.620;2023-09-19T01:36:46;14.82;72.96
75281;HTU21D;63874;47.230;39.620;2023-09-19T01:39:13;14.79;73.02
75281;HTU21D;63874;47.230;39.620;2023-09-19T01:41:51;14.77;73.09
75281;HTU21D;63874;47.230;39.620;2023-09-19T01:47:27;14.73;73.20
75281;HTU21D;63874;47.230;39.620;2023-09-19T01:53:01;14.70;73.36
75281;HTU21D;63874;47.230;39.620;2023-09-19T01:55:30;14.66;73.30
75281;HTU21D;63874;47.230;39.620;2023-09-19T02:00:27;14.62;73.48
75281;HTU21D;63874;47.230;39.620;2023-09-19T02:02:56;14.62;73.56
75281;HTU21D;63874;47.230;39.620;2023-09-19T02:05:25;14.62;73.63
75281;HTU21D;63874;47.230;39.620;2023-09-19T02:07:53;14.58;73.79
75281;HTU21D;63874;47.230;39.620;2023-09-19T02:10:19;14.58;73.91
75281;HTU21D;63874;47.230;39.620;2023-09-19T02:12:45;14.58;73.96
75281;HTU21D;63874;47.230;39.620;2023-09-19T02:15:14;14.55;73.99
75281;HTU21D;63874;47.230;39.620;2023-09-19T02:17:44;14.54;74.06
75281;HTU21D;63874;47.230;39.620;2023-09-19T02:20:12;14.53;74.18
75281;HTU21D;63874;47.230;39.620;2023-09-19T02:22:40;14.53;74.31
75281;HTU21D;63874;47.230;39.620;2023-09-19T02:25:06;14.53;74.39
75281;HTU21D;63874;47.230;39.620;2023-09-19T02:27:34;14.50;74.37
75281;HTU21D;63874;47.230;39.620;2023-09-19T02:30:00;14.51;74.31
75281;HTU21D;63874;47.230;39.620;2023-09-19T02:32:31;14.47;74.35
75281;HTU21D;63874;47.230;39.620;2023-09-19T02:34:57;14.45;74.49
75281;HTU21D;63874;47.230;39.620;2023-09-19T02:37:27;14.43;74.66
75281;HTU21D;63874;47.230;39.620;2023-09-19T02:39:53;14.44;74.79
75281;HTU21D;63874;47.230;39.620;2023-09-19T02:42:20;14.43;74.86
75281;HTU21D;63874;47.230;39.620;2023-09-19T02:44:46;14.43;74.86
75281;HTU21D;63874;47.230;39.620;2023-09-19T02:47:13;14.40;74.88
75281;HTU21D;63874;47.230;39.620;2023-09-19T02:49:40;14.41;75.02
75281;HTU21D;63874;47.230;39.620;2023-09-19T02:52:09;14.39;75.09
75281;HTU21D;63874;47.230;39.620;2023-09-19T02:54:37;14.39;75.13
75281;HTU21D;63874;47.230;39.620;2023-09-19T02:57:03;14.38;75.21
75281;HTU21D;63874;47.230;39.620;2023-09-19T02:59:32;14.36;75.23
75281;HTU21D;63874;47.230;39.620;2023-09-19T03:01:58;14.37;75.22
75281;HTU21D;63874;47.230;39.620;2023-09-19T03:04:24;14.37;75.23
75281;HTU21D;63874;47.230;39.620;2023-09-19T03:06:52;14.37;75.25
75281;HTU21D;63874;47.230;39.620;2023-09-19T03:09:27;14.36;75.33
75281;HTU21D;63874;47.230;39.620;2023-09-19T03:11:53;14.35;75.35
75281;HTU21D;63874;47.230;39.620;2023-09-19T03:14:20;14.35;75.35
75281;HTU21D;63874;47.230;39.620;2023-09-19T03:16:47;14.39;75.25
75281;HTU21D;63874;47.230;39.620;2023-09-19T03:19:15;14.42;75.09
75281;HTU21D;63874;47.230;39.620;2023-09-19T03:21:42;14.47;74.99
75281;HTU21D;63874;47.230;39.620;2023-09-19T03:24:09;14.48;74.94
75281;HTU21D;63874;47.230;39.620;2023-09-19T03:26:38;14.52;74.86
75281;HTU21D;63874;47.230;39.620;2023-09-19T03:29:04;14.55;74.71
75281;HTU21D;63874;47.230;39.620;2023-09-19T03:31:34;14.56;74.66
75281;HTU21D;63874;47.230;39.620;2023-09-19T03:36:42;14.60;74.52
75281;HTU21D;63874;47.230;39.620;2023-09-19T03:39:08;14.63;74.57
75281;HTU21D;63874;47.230;39.620;2023-09-19T03:41:34;14.68;74.61
75281;HTU21D;63874;47.230;39.620;2023-09-19T03:44:04;14.74;74.60
75281;HTU21D;63874;47.230;39.620;2023-09-19T03:46:31;14.82;74.55
75281;HTU21D;63874;47.230;39.620;2023-09-19T03:49:00;14.93;74.45
75281;HTU21D;63874;47.230;39.620;2023-09-19T03:51:26;15.02;74.32
75281;HTU21D;63874;47.230;39.620;2023-09-19T03:53:52;15.11;74.21
75281;HTU21D;63874;47.230;39.620;2023-09-19T03:56:18;15.22;74.08
75281;HTU21D;63874;47.230;39.620;2023-09-19T03:58:45;15.32;73.92
75281;HTU21D;63874;47.230;39.620;2023-09-19T04:01:10;15.43;73.71
75281;HTU21D;63874;47.230;39.620;2023-09-19T04:03:38;15.57;73.48
75281;HTU21D;63874;47.230;39.620;2023-09-19T04:06:14;15.69;73.14
75281;HTU21D;63874;47.230;39.620;2023-09-19T04:08:41;15.81;72.90
75281;HTU21D;63874;47.230;39.620;2023-09-19T04:11:07;15.91;72.58
75281;HTU21D;63874;47.230;39.620;2023-09-19T04:13:33;16.03;72.29
75281;HTU21D;63874;47.230;39.620;2023-09-19T04:15:59;16.16;71.96
75281;HTU21D;63874;47.230;39.620;2023-09-19T04:18:26;16.32;71.59
75281;HTU21D;63874;47.230;39.620;2023-09-19T04:20:53;16.46;71.24
75281;HTU21D;63874;47.230;39.620;2023-09-19T04:23:19;16.60;70.97
75281;HTU21D;63874;47.230;39.620;2023-09-19T04:25:46;16.72;70.61
75281;HTU21D;63874;47.230;39.620;2023-09-19T04:28:12;16.82;70.26
75281;HTU21D;63874;47.230;39.620;2023-09-19T04:30:38;16.93;69.90
75281;HTU21D;63874;47.230;39.620;2023-09-19T04:33:05;17.06;69.51
75281;HTU21D;63874;47.230;39.620;2023-09-19T04:35:32;17.18;69.20
75281;HTU21D;63874;47.230;39.620;2023-09-19T04:37:57;17.30;68.87
75281;HTU21D;63874;47.230;39.620;2023-09-19T04:40:23;17.41;68.44
75281;HTU21D;63874;47.230;39.620;2023-09-19T04:42:53;17.54;68.11
75281;HTU21D;63874;47.230;39.620;2023-09-19T04:45:25;17.67;67.81
75281;HTU21D;63874;47.230;39.620;2023-09-19T04:47:58;17.85;67.38
75281;HTU21D;63874;47.230;39.620;2023-09-19T04:50:24;17.99;66.88
75281;HTU21D;63874;47.230;39.620;2023-09-19T04:52:53;18.11;66.64
75281;HTU21D;63874;47.230;39.620;2023-09-19T04:55:19;18.19;66.33
75281;HTU21D;63874;47.230;39.620;2023-09-19T04:57:45;18.29;65.90
75281;HTU21D;63874;47.230;39.620;2023-09-19T05:00:12;18.40;65.56
75281;HTU21D;63874;47.230;39.620;2023-09-19T05:02:39;18.51;65.29
75281;HTU21D;63874;47.230;39.620;2023-09-19T05:05:06;18.62;64.76
75281;HTU21D;63874;47.230;39.620;2023-09-19T05:07:34;18.74;64.09
75281;HTU21D;63874;47.230;39.620;2023-09-19T05:10:02;18.84;64.08
75281;HTU21D;63874;47.230;39.620;2023-09-19T05:12:36;18.94;63.81
75281;HTU21D;63874;47.230;39.620;2023-09-19T05:15:02;19.06;64.24
75281;HTU21D;63874;47.230;39.620;2023-09-19T05:17:28;19.14;63.74
75281;HTU21D;63874;47.230;39.620;2023-09-19T05:19:54;19.25;63.40
75281;HTU21D;63874;47.230;39.620;2023-09-19T05:22:19;19.35;62.98
75281;HTU21D;63874;47.230;39.620;2023-09-19T05:24:47;19.46;62.63
75281;HTU21D;63874;47.230;39.620;2023-09-19T05:27:14;19.59;62.29
75281;HTU21D;63874;47.230;39.620;2023-09-19T05:29:45;19.72;62.02
75281;HTU21D;63874;47.230;39.620;2023-09-19T05:32:11;19.84;61.61
75281;HTU21D;63874;47.230;39.620;2023-09-19T05:34:37;19.91;60.99
75281;HTU21D;63874;47.230;39.620;2023-09-19T05:37:04;20.00;60.49
75281;HTU21D;63874;47.230;39.620;2023-09-19T05:39:32;20.10;60.28
75281;HTU21D;63874;47.230;39.620;2023-09-19T05:41:59;20.18;60.28
75281;HTU21D;63874;47.230;39.620;2023-09-19T05:44:28;20.28;60.14
75281;HTU21D;63874;47.230;39.620;2023-09-19T05:46:54;20.39;59.96
75281;HTU21D;63874;47.230;39.620;2023-09-19T05:49:22;20.50;59.70
75281;HTU21D;63874;47.230;39.620;2023-09-19T05:51:47;20.61;59.35
75281;HTU21D;63874;47.230;39.620;2023-09-19T05:54:13;20.70;59.13
75281;HTU21D;63874;47.230;39.620;2023-09-19T05:56:41;20.79;58.72
75281;HTU21D;63874;47.230;39.620;2023-09-19T05:59:07;20.88;58.65
75281;HTU21D;63874;47.230;39.620;2023-09-19T06:01:33;20.93;58.58
75281;HTU21D;63874;47.230;39.620;2023-09-19T06:03:59;21.03;58.32
75281;HTU21D;63874;47.230;39.620;2023-09-19T06:06:26;21.09;58.37
75281;HTU21D;63874;47.230;39.620;2023-09-19T06:08:52;21.17;58.17
75281;HTU21D;63874;47.230;39.620;2023-09-19T06:11:18;21.29;57.67
75281;HTU21D;63874;47.230;39.620;2023-09-19T06:13:45;21.36;57.76
75281;HTU21D;63874;47.230;39.620;2023-09-19T06:16:16;21.44;57.62
75281;HTU21D;63874;47.230;39.620;2023-09-19T06:18:45;21.54;57.55
75281;HTU21D;63874;47.230;39.620;2023-09-19T06:21:10;21.62;57.52
75281;HTU21D;63874;47.230;39.620;2023-09-19T06:23:37;21.72;57.40
75281;HTU21D;63874;47.230;39.620;2023-09-19T06:26:03;21.78;57.16
75281;HTU21D;63874;47.230;39.620;2023-09-19T06:28:32;21.88;56.58
75281;HTU21D;63874;47.230;39.620;2023-09-19T06:31:01;21.91;56.19
75281;HTU21D;63874;47.230;39.620;2023-09-19T06:33:28;21.95;55.78
75281;HTU21D;63874;47.230;39.620;2023-09-19T06:35:56;22.01;55.49
75281;HTU21D;63874;47.230;39.620;2023-09-19T06:38:25;22.08;55.54
75281;HTU21D;63874;47.230;39.620;2023-09-19T06:40:51;22.16;55.31
75281;HTU21D;63874;47.230;39.620;2023-09-19T06:43:16;22.23;54.86
75281;HTU21D;63874;47.230;39.620;2023-09-19T06:45:42;22.29;54.60
75281;HTU21D;63874;47.230;39.620;2023-09-19T06:48:08;22.34;54.40
75281;HTU21D;63874;47.230;39.620;2023-09-19T06:50:35;22.38;54.12
75281;HTU21D;63874;47.230;39.620;2023-09-19T06:53:01;22.43;54.14
75281;HTU21D;63874;47.230;39.620;2023-09-19T06:55:28;22.50;53.74
75281;HTU21D;63874;47.230;39.620;2023-09-19T06:57:56;22.56;53.09
75281;HTU21D;63874;47.230;39.620;2023-09-19T07:00:22;22.60;52.95
75281;HTU21D;63874;47.230;39.620;2023-09-19T07:05:22;22.75;52.78
75281;HTU21D;63874;47.230;39.620;2023-09-19T07:07:48;22.84;52.64
75281;HTU21D;63874;47.230;39.620;2023-09-19T07:10:14;22.91;51.98
75281;HTU21D;63874;47.230;39.620;2023-09-19T07:12:41;23.00;51.17
75281;HTU21D;63874;47.230;39.620;2023-09-19T07:15:07;23.16;51.30
75281;HTU21D;63874;47.230;39.620;2023-09-19T07:17:33;23.26;50.56
75281;HTU21D;63874;47.230;39.620;2023-09-19T07:20:02;23.31;49.93
75281;HTU21D;63874;47.230;39.620;2023-09-19T07:22:33;23.36;49.95
75281;HTU21D;63874;47.230;39.620;2023-09-19T07:24:58;23.43;48.36
75281;HTU21D;63874;47.230;39.620;2023-09-19T07:27:24;23.51;48.53
75281;HTU21D;63874;47.230;39.620;2023-09-19T07:29:50;23.59;48.34
75281;HTU21D;63874;47.230;39.620;2023-09-19T07:32:17;23.69;47.91
75281;HTU21D;63874;47.230;39.620;2023-09-19T07:34:42;23.73;47.53
75281;HTU21D;63874;47.230;39.620;2023-09-19T07:37:10;23.79;46.83
75281;HTU21D;63874;47.230;39.620;2023-09-19T07:39:36;23.82;45.78
75281;HTU21D;63874;47.230;39.620;2023-09-19T07:42:02;23.84;46.01
75281;HTU21D;63874;47.230;39.620;2023-09-19T07:44:28;23.90;46.41
75281;HTU21D;63874;47.230;39.620;2023-09-19T07:46:54;23.95;46.75
75281;HTU21D;63874;47.230;39.620;2023-09-19T07:49:20;23.98;46.75
75281;HTU21D;63874;47.230;39.620;2023-09-19T07:51:46;24.01;46.98
75281;HTU21D;63874;47.230;39.620;2023-09-19T07:54:12;24.01;45.64
75281;HTU21D;63874;47.230;39.620;2023-09-19T07:56:40;24.01;45.86
75281;HTU21D;63874;47.230;39.620;2023-09-19T07:59:06;24.02;46.26
75281;HTU21D;63874;47.230;39.620;2023-09-19T08:01:31;24.02;46.03
75281;HTU21D;63874;47.230;39.620;2023-09-19T08:03:58;24.04;45.97
75281;HTU21D;63874;47.230;39.620;2023-09-19T08:06:24;24.06;44.01
75281;HTU21D;63874;47.230;39.620;2023-09-19T08:08:52;24.09;44.51
75281;HTU21D;63874;47.230;39.620;2023-09-19T08:11:23;24.11;43.55
75281;HTU21D;63874;47.230;39.620;2023-09-19T08:13:49;24.14;43.87
75281;HTU21D;63874;47.230;39.620;2023-09-19T08:16:15;24.19;43.98
75281;HTU21D;63874;47.230;39.620;2023-09-19T08:18:41;24.23;42.36
75281;HTU21D;63874;47.230;39.620;2023-09-19T08:21:07;24.23;43.23
75281;HTU21D;63874;47.230;39.620;2023-09-19T08:23:36;24.27;42.33
75281;HTU21D;63874;47.230;39.620;2023-09-19T08:26:04;24.33;41.28
75281;HTU21D;63874;47.230;39.620;2023-09-19T08:28:32;24.39;42.81
75281;HTU21D;63874;47.230;39.620;2023-09-19T08:31:05;24.44;43.17
75281;HTU21D;63874;47.230;39.620;2023-09-19T08:33:34;24.49;42.09
75281;HTU21D;63874;47.230;39.620;2023-09-19T08:36:01;24.53;42.74
75281;HTU21D;63874;47.230;39.620;2023-09-19T08:38:26;24.60;43.51
75281;HTU21D;63874;47.230;39.620;2023-09-19T08:40:59;24.69;42.83
75281;HTU21D;63874;47.230;39.620;2023-09-19T08:43:27;24.76;40.88
75281;HTU21D;63874;47.230;39.620;2023-09-19T08:45:58;24.80;40.88
75281;HTU21D;63874;47.230;39.620;2023-09-19T08:48:25;24.90;41.40
75281;HTU21D;63874;47.230;39.620;2023-09-19T08:50:57;25.04;41.33
75281;HTU21D;63874;47.230;39.620;2023-09-19T08:53:31;25.18;38.22
75281;HTU21D;63874;47.230;39.620;2023-09-19T08:55:59;25.28;38.35
75281;HTU21D;63874;47.230;39.620;2023-09-19T08:58:31;25.37;38.98
75281;HTU21D;63874;47.230;39.620;2023-09-19T09:00:57;25.49;40.58
75281;HTU21D;63874;47.230;39.620;2023-09-19T09:03:23;25.63;40.80
75281;HTU21D;63874;47.230;39.620;2023-09-19T09:05:50;25.81;40.06
75281;HTU21D;63874;47.230;39.620;2023-09-19T09:08:17;26.04;40.04
75281;HTU21D;63874;47.230;39.620;2023-09-19T09:10:45;26.65;38.53
75281;HTU21D;63874;47.230;39.620;2023-09-19T09:13:12;27.72;37.30
75281;HTU21D;63874;47.230;39.620;2023-09-19T09:15:39;29.13;34.11
75281;HTU21D;63874;47.230;39.620;2023-09-19T09:18:10;30.17;31.30
75281;HTU21D;63874;47.230;39.620;2023-09-19T09:20:35;31.04;29.39
75281;HTU21D;63874;47.230;39.620;2023-09-19T09:23:01;31.69;29.88
75281;HTU21D;63874;47.230;39.620;2023-09-19T09:28:13;34.21;28.71
75281;HTU21D;63874;47.230;39.620;2023-09-19T09:30:45;35.53;27.07
75281;HTU21D;63874;47.230;39.620;2023-09-19T09:33:12;36.38;22.68
75281;HTU21D;63874;47.230;39.620;2023-09-19T09:35:51;36.37;23.27
75281;HTU21D;63874;47.230;39.620;2023-09-19T09:38:21;36.40;21.93
75281;HTU21D;63874;47.230;39.620;2023-09-19T09:40:51;36.72;20.43
75281;HTU21D;63874;47.230;39.620;2023-09-19T09:48:58;37.67;20.12
75281;HTU21D;63874;47.230;39.620;2023-09-19T09:51:45;38.43;20.58
75281;HTU21D;63874;47.230;39.620;2023-09-19T09:54:23;39.27;18.44
75281;HTU21D;63874;47.230;39.620;2023-09-19T09:56:55;39.23;17.55
75281;HTU21D;63874;47.230;39.620;2023-09-19T10:02:09;39.34;18.25
75281;HTU21D;63874;47.230;39.620;2023-09-19T10:04:39;39.58;18.26
75281;HTU21D;63874;47.230;39.620;2023-09-19T10:07:27;39.76;17.68
75281;HTU21D;63874;47.230;39.620;2023-09-19T10:09:58;40.03;17.57
75281;HTU21D;63874;47.230;39.620;2023-09-19T10:12:36;40.24;15.84
75281;HTU21D;63874;47.230;39.620;2023-09-19T10:15:04;39.89;15.63
75281;HTU21D;63874;47.230;39.620;2023-09-19T10:17:34;39.23;15.84
75281;HTU21D;63874;47.230;39.620;2023-09-19T10:20:00;38.73;15.54
75281;HTU21D;63874;47.230;39.620;2023-09-19T10:22:34;38.78;16.95
75281;HTU21D;63874;47.230;39.620;2023-09-19T10:25:00;39.30;16.61
75281;HTU21D;63874;47.230;39.620;2023-09-19T10:27:28;39.63;15.98
75281;HTU21D;63874;47.230;39.620;2023-09-19T10:29:56;40.24;15.58
75281;HTU21D;63874;47.230;39.620;2023-09-19T10:32:22;40.81;15.06
75281;HTU21D;63874;47.230;39.620;2023-09-19T10:34:49;41.21;14.73
75281;HTU21D;63874;47.230;39.620;2023-09-19T10:37:15;40.40;14.00
75281;HTU21D;63874;47.230;39.620;2023-09-19T10:39:44;39.57;15.46
75281;HTU21D;63874;47.230;39.620;2023-09-19T10:42:10;39.66;14.71
75281;HTU21D;63874;47.230;39.620;2023-09-19T10:44:45;39.29;14.53
75281;HTU21D;63874;47.230;39.620;2023-09-19T10:47:11;38.89;15.26
75281;HTU21D;63874;47.230;39.620;2023-09-19T10:49:44;38.73;15.28
75281;HTU21D;63874;47.230;39.620;2023-09-19T10:52:17;38.45;14.90
75281;HTU21D;63874;47.230;39.620;2023-09-19T10:54:46;38.05;15.00
75281;HTU21D;63874;47.230;39.620;2023-09-19T10:57:21;37.67;15.97
75281;HTU21D;63874;47.230;39.620;2023-09-19T11:00:04;36.99;16.76
75281;HTU21D;63874;47.230;39.620;2023-09-19T11:05:32;33.40;19.48
75281;HTU21D;63874;47.230;39.620;2023-09-19T11:07:59;32.25;20.82
75281;HTU21D;63874;47.230;39.620;2023-09-19T11:10:49;31.19;22.03
75281;HTU21D;63874;47.230;39.620;2023-09-19T11:13:29;30.20;23.27
75281;HTU21D;63874;47.230;39.620;2023-09-19T11:26:50;27.50;26.83
75281;HTU21D;63874;47.230;39.620;2023-09-19T11:31:51;26.99;27.86
75281;HTU21D;63874;47.230;39.620;2023-09-19T11:37:01;26.69;28.48
75281;HTU21D;63874;47.230;39.620;2023-09-19T11:39:30;26.58;28.80
75281;HTU21D;63874;47.230;39.620;2023-09-19T11:41:55;26.49;28.85
75281;HTU21D;63874;47.230;39.620;2023-09-19T11:46:52;26.32;29.23
75281;HTU21D;63874;47.230;39.620;2023-09-19T11:49:18;26.26;29.15
75281;HTU21D;63874;47.230;39.620;2023-09-19T11:51:52;26.18;29.19
75281;HTU21D;63874;47.230;39.620;2023-09-19T11:54:18;26.07;29.11
75281;HTU21D;63874;47.230;39.620;2023-09-19T11:56:50;25.99;29.34
75281;HTU21D;63874;47.230;39.620;2023-09-19T11:59:22;25.93;29.84
75281;HTU21D;63874;47.230;39.620;2023-09-19T12:01:52;25.91;29.87
75281;HTU21D;63874;47.230;39.620;2023-09-19T12:06:59;25.80;30.24
75281;HTU21D;63874;47.230;39.620;2023-09-19T12:09:25;25.77;30.36
75281;HTU21D;63874;47.230;39.620;2023-09-19T12:11:50;25.74;30.53
75281;HTU21D;63874;47.230;39.620;2023-09-19T12:14:26;25.71;30.43
75281;HTU21D;63874;47.230;39.620;2023-09-19T12:16:54;25.67;30.66
75281;HTU21D;63874;47.230;39.620;2023-09-19T12:19:21;25.65;30.44
75281;HTU21D;63874;47.230;39.620;2023-09-19T12:21:59;25.60;30.64
75281;HTU21D;63874;47.230;39.620;2023-09-19T12:24:30;25.58;30.77
75281;HTU21D;63874;47.230;39.620;2023-09-19T12:26:59;25.56;30.99
75281;HTU21D;63874;47.230;39.620;2023-09-19T12:29:29;25.53;31.29
75281;HTU21D;63874;47.230;39.620;2023-09-19T12:31:57;25.52;31.09
75281;HTU21D;63874;47.230;39.620;2023-09-19T12:34:24;25.54;30.91
75281;HTU21D;63874;47.230;39.620;2023-09-19T12:39:46;25.48;30.99
75281;HTU21D;63874;47.230;39.620;2023-09-19T12:42:25;25.44;31.19
75281;HTU21D;63874;47.230;39.620;2023-09-19T12:44:58;25.39;31.15
75281;HTU21D;63874;47.230;39.620;2023-09-19T12:47:26;25.36;30.94
75281;HTU21D;63874;47.230;39.620;2023-09-19T12:50:06;25.34;31.09
75281;HTU21D;63874;47.230;39.620;2023-09-19T12:52:36;25.31;31.12
75281;HTU21D;63874;47.230;39.620;2023-09-19T12:55:02;25.25;31.04
75281;HTU21D;63874;47.230;39.620;2023-09-19T12:57:28;25.21;31.21
75281;HTU21D;63874;47.230;39.620;2023-09-19T12:59:54;25.19;31.39
75281;HTU21D;63874;47.230;39.620;2023-09-19T13:02:20;25.15;31.59
75281;HTU21D;63874;47.230;39.620;2023-09-19T13:04:52;25.16;31.70
75281;HTU21D;63874;47.230;39.620;2023-09-19T13:10:05;25.13;32.16
75281;HTU21D;63874;47.230;39.620;2023-09-19T13:12:36;25.10;31.80
75281;HTU21D;63874;47.230;39.620;2023-09-19T13:15:12;25.07;31.83
75281;HTU21D;63874;47.230;39.620;2023-09-19T13:17:45;25.02;31.96
75281;HTU21D;63874;47.230;39.620;2023-09-19T13:20:25;24.99;31.88
75281;HTU21D;63874;47.230;39.620;2023-09-19T13:22:53;24.93;32.25
75281;HTU21D;63874;47.230;39.620;2023-09-19T13:25:24;24.90;32.35
75281;HTU21D;63874;47.230;39.620;2023-09-19T13:27:51;24.88;32.37
75281;HTU21D;63874;47.230;39.620;2023-09-19T13:30:19;24.87;32.27
75281;HTU21D;63874;47.230;39.620;2023-09-19T13:32:45;24.84;32.54
75281;HTU21D;63874;47.230;39.620;2023-09-19T13:35:13;24.79;32.60
75281;HTU21D;63874;47.230;39.620;2023-09-19T13:37:39;24.75;32.70
75281;HTU21D;63874;47.230;39.620;2023-09-19T13:40:07;24.72;32.64
75281;HTU21D;63874;47.230;39.620;2023-09-19T13:42:35;24.68;32.72
75281;HTU21D;63874;47.230;39.620;2023-09-19T13:45:02;24.66;32.64
75281;HTU21D;63874;47.230;39.620;2023-09-19T13:47:31;24.62;32.80
75281;HTU21D;63874;47.230;39.620;2023-09-19T13:49:58;24.56;32.82
75281;HTU21D;63874;47.230;39.620;2023-09-19T13:52:24;24.54;32.79
75281;HTU21D;63874;47.230;39.620;2023-09-19T13:54:50;24.51;33.05
75281;HTU21D;63874;47.230;39.620;2023-09-19T13:57:16;24.47;33.13
75281;HTU21D;63874;47.230;39.620;2023-09-19T13:59:42;24.40;33.36
75281;HTU21D;63874;47.230;39.620;2023-09-19T14:02:08;24.38;33.39
75281;HTU21D;63874;47.230;39.620;2023-09-19T14:04:33;24.32;33.52
75281;HTU21D;63874;47.230;39.620;2023-09-19T14:07:00;24.28;33.59
75281;HTU21D;63874;47.230;39.620;2023-09-19T14:09:26;24.23;33.81
75281;HTU21D;63874;47.230;39.620;2023-09-19T14:11:53;24.20;33.83
75281;HTU21D;63874;47.230;39.620;2023-09-19T14:14:19;24.15;34.10
75281;HTU21D;63874;47.230;39.620;2023-09-19T14:16:46;24.13;34.02
75281;HTU21D;63874;47.230;39.620;2023-09-19T14:19:12;24.14;33.91
75281;HTU21D;63874;47.230;39.620;2023-09-19T14:21:39;24.13;33.95
75281;HTU21D;63874;47.230;39.620;2023-09-19T14:24:05;24.09;34.11
75281;HTU21D;63874;47.230;39.620;2023-09-19T14:26:35;24.03;34.02
75281;HTU21D;63874;47.230;39.620;2023-09-19T14:29:00;24.00;34.13
75281;HTU21D;63874;47.230;39.620;2023-09-19T14:31:26;23.96;34.22
75281;HTU21D;63874;47.230;39.620;2023-09-19T14:33:53;23.92;34.28
75281;HTU21D;63874;47.230;39.620;2023-09-19T14:36:20;23.88;34.41
75281;HTU21D;63874;47.230;39.620;2023-09-19T14:38:47;23.84;34.35
75281;HTU21D;63874;47.230;39.620;2023-09-19T14:41:13;23.80;34.45
75281;HTU21D;63874;47.230;39.620;2023-09-19T14:43:40;23.74;34.70
75281;HTU21D;63874;47.230;39.620;2023-09-19T14:46:06;23.67;34.83
75281;HTU21D;63874;47.230;39.620;2023-09-19T14:48:37;23.58;35.02
75281;HTU21D;63874;47.230;39.620;2023-09-19T14:51:04;23.51;35.19
75281;HTU21D;63874;47.230;39.620;2023-09-19T14:53:31;23.43;35.37
75281;HTU21D;63874;47.230;39.620;2023-09-19T14:55:56;23.38;35.63
75281;HTU21D;63874;47.230;39.620;2023-09-19T14:58:22;23.29;35.85
75281;HTU21D;63874;47.230;39.620;2023-09-19T15:00:49;23.23;36.02
75281;HTU21D;63874;47.230;39.620;2023-09-19T15:03:17;23.18;36.26
75281;HTU21D;63874;47.230;39.620;2023-09-19T15:05:45;23.11;36.42
75281;HTU21D;63874;47.230;39.620;2023-09-19T15:08:11;23.06;36.63
75281;HTU21D;63874;47.230;39.620;2023-09-19T15:10:36;23.01;36.87
75281;HTU21D;63874;47.230;39.620;2023-09-19T15:13:02;22.96;37.10
75281;HTU21D;63874;47.230;39.620;2023-09-19T15:15:28;22.90;37.30
75281;HTU21D;63874;47.230;39.620;2023-09-19T15:17:53;22.84;37.45
75281;HTU21D;63874;47.230;39.620;2023-09-19T15:20:19;22.76;37.75
75281;HTU21D;63874;47.230;39.620;2023-09-19T15:22:44;22.71;37.98
75281;HTU21D;63874;47.230;39.620;2023-09-19T15:25:11;22.66;38.19
75281;HTU21D;63874;47.230;39.620;2023-09-19T15:27:37;22.57;38.53
75281;HTU21D;63874;47.230;39.620;2023-09-19T15:30:02;22.55;38.67
75281;HTU21D;63874;47.230;39.620;2023-09-19T15:32:28;22.49;38.98
75281;HTU21D;63874;47.230;39.620;2023-09-19T15:34:54;22.47;39.13
75281;HTU21D;63874;47.230;39.620;2023-09-19T15:37:20;22.44;39.25
75281;HTU21D;63874;47.230;39.620;2023-09-19T15:39:46;22.40;39.38
75281;HTU21D;63874;47.230;39.620;2023-09-19T15:42:12;22.33;39.58
75281;HTU21D;63874;47.230;39.620;2023-09-19T15:44:39;22.27;39.83
75281;HTU21D;63874;47.230;39.620;2023-09-19T15:47:05;22.18;40.03
75281;HTU21D;63874;47.230;39.620;2023-09-19T15:49:31;22.10;40.33
75281;HTU21D;63874;47.230;39.620;2023-09-19T15:51:57;22.04;40.63
75281;HTU21D;63874;47.230;39.620;2023-09-19T15:54:23;21.97;40.72
75281;HTU21D;63874;47.230;39.620;2023-09-19T15:56:50;21.95;40.93
75281;HTU21D;63874;47.230;39.620;2023-09-19T15:59:16;21.95;40.91
75281;HTU21D;63874;47.230;39.620;2023-09-19T16:01:43;21.91;41.07
75281;HTU21D;63874;47.230;39.620;2023-09-19T16:04:09;21.85;41.22
75281;HTU21D;63874;47.230;39.620;2023-09-19T16:06:35;21.80;41.46
75281;HTU21D;63874;47.230;39.620;2023-09-19T16:09:01;21.73;41.64
75281;HTU21D;63874;47.230;39.620;2023-09-19T16:11:29;21.65;41.90
75281;HTU21D;63874;47.230;39.620;2023-09-19T16:13:55;21.61;42.05